Almond, NY

4:07 AM EST on January 31, 2015 (GMT -0500)
Dansville Municipal | Change Station
CLOSE
Current Station
Airport
Location: Dansville,
Elevation: 659 ft
Nearby Weather Stations

Elev 659 ft 42.57 °N, 77.71 °W | Updated 13 minutes ago

Overcast
Overcast
8 °F
Feels Like 0 °F
N
5
Wind Variable Wind from NNW

Today
High -- | Low -- °F
--% Chance of Precip.
Yesterday
High -- | Low -- °F
Precip. -- in
7:26 AM 5:23 PM
Waxing Gibbous, 88% visible
Pressure 30.38 in
Visibility 10.0 miles
Clouds Overcast 3100 ft
Windchill 0 °F
Dew Point 2 °F
Humidity 76%
Rainfall 0.00 in
Snow Depth Not available.
UV 0 out of 12
Pollen .10 out of 12
Air Quality Not available.
Flu Activity Not available.
METAR KDSV 310854Z AUTO 34004KT 10SM OVC031 M13/M17 A3031 RMK AO2 SLP286 60000 T11331167 58000

More Conditions Fewer Conditions

Pressure 30.38 in
Visibility 10.0 miles
Clouds Overcast 3100 ft
Windchill 0 °F
Dew Point 2 °F
Humidity 76%
Rainfall 0.00 in
Snow Depth Not available.
UV 0 out of 12
Pollen .10 out of 12
Air Quality Not available.
Flu Activity Not available.
METAR KDSV 310854Z AUTO 34004KT 10SM OVC031 M13/M17 A3031 RMK AO2 SLP286 60000 T11331167 58000

More Conditions Fewer Conditions

10-Day Weather Forecast

Almanac

Astronomy

Jan. 31, 2015 Rise Set
Actual Time
Civil Twilight
Nautical Twilight
Astronomical Twilight
Moon
Length of Visible Light
Length of Day
Tomorrow will be .
, % of the Moon is Illuminated

Today's Extremes

State Highs State Lows

Community

WunderPhotos

Upload Photos

1,792,021 photos uploaded!

WunderBlogs® & News

Nearby

Air Quality

  Air Quality AQ Index Pollutant
Not available.

Snow Depth

Station Depth Elevation

Earthquake Activity

City Distance Mag. Time & Date
Minimum magnitude displayed is 2.5.

Coastal Water Temperatures

Place Temperature

Nearby Weather Stations